createdAt,value
2022-12-01T00:01:43.276Z,12.80
2022-12-01T00:04:11.916Z,12.80
2022-12-01T00:06:40.548Z,12.70
2022-12-01T00:09:27.913Z,12.80
2022-12-01T00:11:57.986Z,12.70
2022-12-01T00:14:26.676Z,12.70
2022-12-01T00:16:55.202Z,12.70
2022-12-01T00:19:25.822Z,12.70
2022-12-01T00:21:54.598Z,12.70
2022-12-01T00:24:23.740Z,12.60
2022-12-01T00:26:52.316Z,12.70
2022-12-01T00:29:22.284Z,12.60
2022-12-01T00:31:51.556Z,12.60
2022-12-01T00:34:23.124Z,12.60
2022-12-01T00:36:51.867Z,12.60
2022-12-01T00:39:20.359Z,12.60
2022-12-01T00:41:48.850Z,12.60
2022-12-01T00:44:17.512Z,12.60
2022-12-01T00:46:47.495Z,12.60
2022-12-01T00:49:16.155Z,12.50
2022-12-01T00:51:44.998Z,12.50
2022-12-01T00:54:13.413Z,12.50
2022-12-01T00:56:41.900Z,12.50
2022-12-01T00:59:10.564Z,12.50
2022-12-01T01:01:39.300Z,12.50
2022-12-01T01:04:09.556Z,12.50
2022-12-01T01:06:38.751Z,12.50
2022-12-01T01:09:07.255Z,12.50
2022-12-01T01:11:35.850Z,12.50
2022-12-01T01:14:04.783Z,12.50
2022-12-01T01:16:33.326Z,12.50
2022-12-01T01:19:02.009Z,12.40
2022-12-01T01:21:31.984Z,12.50
2022-12-01T01:24:00.602Z,12.50
2022-12-01T01:26:30.079Z,12.50
2022-12-01T01:28:59.645Z,12.50
2022-12-01T01:31:28.748Z,12.60
2022-12-01T01:33:57.401Z,12.60
2022-12-01T01:36:26.509Z,12.60
2022-12-01T01:38:56.496Z,12.70
2022-12-01T01:41:25.103Z,12.60
2022-12-01T01:43:54.310Z,12.60
2022-12-01T01:46:23.955Z,12.60
2022-12-01T01:48:53.652Z,12.60
2022-12-01T01:51:23.983Z,12.60
2022-12-01T01:54:15.875Z,12.60
2022-12-01T01:56:44.898Z,12.70
2022-12-01T01:59:14.299Z,12.70
2022-12-01T02:01:42.826Z,12.60
2022-12-01T02:04:11.419Z,12.60
2022-12-01T02:06:39.914Z,12.70
2022-12-01T02:09:08.452Z,12.70
2022-12-01T02:11:51.114Z,12.70
2022-12-01T02:14:35.019Z,12.70
2022-12-01T02:17:06.544Z,12.70
2022-12-01T02:19:44.137Z,12.70
2022-12-01T02:22:19.239Z,12.70
2022-12-01T02:25:00.640Z,12.70
2022-12-01T02:27:38.947Z,12.70
2022-12-01T02:30:09.483Z,12.60
2022-12-01T02:32:46.873Z,12.70
2022-12-01T02:35:18.135Z,12.70
2022-12-01T02:37:51.052Z,12.70
2022-12-01T02:40:21.902Z,12.70
2022-12-01T02:42:54.198Z,12.80
2022-12-01T02:45:27.830Z,12.60
2022-12-01T02:47:59.883Z,12.60
2022-12-01T02:50:29.990Z,12.60
2022-12-01T02:52:58.774Z,12.60
2022-12-01T02:55:27.280Z,12.60
2022-12-01T02:57:55.848Z,12.60
2022-12-01T03:00:24.586Z,12.60
2022-12-01T03:03:01.599Z,12.60
2022-12-01T03:05:33.394Z,12.60
2022-12-01T03:08:03.449Z,12.60
2022-12-01T03:10:54.910Z,12.70
2022-12-01T03:13:28.379Z,12.60
2022-12-01T03:16:01.491Z,12.50
2022-12-01T03:18:34.350Z,12.60
2022-12-01T03:21:05.858Z,12.60
2022-12-01T03:23:36.729Z,12.60
2022-12-01T03:26:08.349Z,12.50
2022-12-01T03:28:39.263Z,12.50
2022-12-01T03:31:08.942Z,12.60
2022-12-01T03:33:40.818Z,12.60
2022-12-01T03:36:12.147Z,12.60
2022-12-01T03:38:41.481Z,12.60
2022-12-01T03:41:12.096Z,12.60
2022-12-01T03:43:42.543Z,12.60
2022-12-01T03:46:12.434Z,12.60
2022-12-01T03:48:43.207Z,12.50
2022-12-01T03:51:15.417Z,12.60
2022-12-01T03:53:48.608Z,12.60
2022-12-01T03:56:19.208Z,12.60
2022-12-01T03:58:49.172Z,12.60
2022-12-01T04:01:17.823Z,12.60
2022-12-01T04:03:48.537Z,12.60
2022-12-01T04:06:17.333Z,12.60
2022-12-01T04:08:46.042Z,12.60
2022-12-01T04:11:32.961Z,12.60
2022-12-01T04:14:01.785Z,12.60
2022-12-01T04:16:30.667Z,12.70
2022-12-01T04:19:00.671Z,12.70
2022-12-01T04:21:29.321Z,12.60
2022-12-01T04:24:06.842Z,12.70
2022-12-01T04:26:36.613Z,12.70
2022-12-01T04:29:23.882Z,12.70
2022-12-01T04:31:52.434Z,12.60
2022-12-01T04:34:22.697Z,12.60
2022-12-01T04:36:51.194Z,12.60
2022-12-01T04:39:20.167Z,12.70
2022-12-01T04:41:48.730Z,12.60
2022-12-01T04:44:17.439Z,12.70
2022-12-01T04:46:45.917Z,12.70
2022-12-01T04:49:14.565Z,12.60
2022-12-01T04:51:44.624Z,12.60
2022-12-01T04:54:31.932Z,12.60
2022-12-01T04:57:00.481Z,12.60
2022-12-01T04:59:29.175Z,12.60
2022-12-01T05:01:58.303Z,12.50
2022-12-01T05:04:26.920Z,12.50
2022-12-01T05:06:57.066Z,12.50
2022-12-01T05:09:25.748Z,12.40
2022-12-01T05:11:54.189Z,12.40
2022-12-01T05:14:22.989Z,12.30
2022-12-01T05:16:51.509Z,12.30
2022-12-01T05:19:37.608Z,12.30
2022-12-01T05:22:07.570Z,12.20
2022-12-01T05:24:36.189Z,12.20
2022-12-01T05:27:04.760Z,12.10
2022-12-01T05:29:33.323Z,12.10
2022-12-01T05:32:03.340Z,12.10
2022-12-01T05:34:31.993Z,12.10
2022-12-01T05:37:00.474Z,12.10
2022-12-01T05:39:30.623Z,12.10
2022-12-01T05:41:59.267Z,12.10
2022-12-01T05:44:27.895Z,12.10
2022-12-01T05:46:56.536Z,12.10
2022-12-01T05:49:25.044Z,12.10
2022-12-01T05:51:53.596Z,12.10
2022-12-01T05:54:22.070Z,12.20
2022-12-01T05:56:52.064Z,12.20
2022-12-01T05:59:39.295Z,12.20
2022-12-01T06:02:07.823Z,12.20
2022-12-01T06:04:55.101Z,12.30
2022-12-01T06:07:25.824Z,12.30
2022-12-01T06:09:54.728Z,12.40
2022-12-01T06:12:24.773Z,12.50
2022-12-01T06:14:53.368Z,12.50
2022-12-01T06:17:22.045Z,12.60
2022-12-01T06:19:50.736Z,12.70
2022-12-01T06:22:19.702Z,12.90
2022-12-01T06:25:06.983Z,13.00
2022-12-01T06:27:37.224Z,13.20
2022-12-01T06:30:24.319Z,13.40
2022-12-01T06:32:53.148Z,13.60
2022-12-01T06:35:21.611Z,13.60
2022-12-01T06:37:50.096Z,13.60
2022-12-01T06:40:18.758Z,13.60
2022-12-01T06:42:48.673Z,13.50
2022-12-01T06:45:17.458Z,13.50
2022-12-01T06:47:48.331Z,13.70
2022-12-01T06:50:17.001Z,14.10
2022-12-01T06:52:45.667Z,14.20
2022-12-01T06:55:14.255Z,14.20
2022-12-01T06:57:43.539Z,14.40
2022-12-01T07:00:14.739Z,14.50
2022-12-01T07:02:43.704Z,14.60
2022-12-01T07:05:12.464Z,14.80
2022-12-01T07:07:41.199Z,15.20
2022-12-01T07:10:10.511Z,15.80
2022-12-01T07:12:39.150Z,16.20
2022-12-01T07:15:09.487Z,16.70
2022-12-01T07:17:39.577Z,17.20
2022-12-01T07:20:10.504Z,17.30
2022-12-01T07:22:39.829Z,17.20
2022-12-01T07:25:08.813Z,17.30
2022-12-01T07:27:37.627Z,17.10
2022-12-01T07:30:06.909Z,16.90
2022-12-01T07:32:35.377Z,16.60
2022-12-01T07:35:05.520Z,16.30
2022-12-01T07:37:34.183Z,16.10
2022-12-01T07:40:03.030Z,15.80
2022-12-01T07:42:31.706Z,15.60
2022-12-01T07:45:00.354Z,15.40
2022-12-01T07:47:29.053Z,15.20
2022-12-01T07:49:57.512Z,15.00
2022-12-01T07:52:27.620Z,15.10
2022-12-01T07:54:57.086Z,15.10
2022-12-01T07:57:25.689Z,15.20
2022-12-01T07:59:54.392Z,15.30
2022-12-01T08:02:23.196Z,15.10
2022-12-01T08:04:51.779Z,15.10
2022-12-01T08:07:20.321Z,15.00
2022-12-01T08:09:50.424Z,15.00
2022-12-01T08:12:19.209Z,14.90
2022-12-01T08:14:47.744Z,14.80
2022-12-01T08:17:16.159Z,14.80
2022-12-01T08:19:44.679Z,14.70
2022-12-01T08:22:31.848Z,14.60
2022-12-01T08:25:01.844Z,14.60
2022-12-01T08:27:30.515Z,14.50
2022-12-01T08:29:59.034Z,14.60
2022-12-01T08:32:27.534Z,15.40
2022-12-01T08:34:55.997Z,15.90
2022-12-01T08:37:24.755Z,16.10
2022-12-01T08:39:53.352Z,16.20
2022-12-01T08:42:23.309Z,16.60
2022-12-01T08:44:51.941Z,16.80
2022-12-01T08:47:20.542Z,16.80
2022-12-01T08:49:49.168Z,17.30
2022-12-01T08:52:18.933Z,18.30
2022-12-01T08:54:47.878Z,19.40
2022-12-01T08:57:16.523Z,20.50
2022-12-01T08:59:46.966Z,21.60
2022-12-01T09:02:17.044Z,22.70
2022-12-01T09:04:45.764Z,23.60
2022-12-01T09:07:19.081Z,24.40
2022-12-01T09:09:51.655Z,25.00
2022-12-01T09:12:20.365Z,25.20
2022-12-01T09:14:50.292Z,25.30
2022-12-01T09:17:18.934Z,25.50
2022-12-01T09:19:47.754Z,25.80
2022-12-01T09:22:23.142Z,25.60
2022-12-01T09:24:52.674Z,25.60
2022-12-01T09:27:21.209Z,25.90
2022-12-01T09:29:51.326Z,26.00
2022-12-01T09:32:20.088Z,25.80
2022-12-01T09:34:48.687Z,26.00
2022-12-01T09:37:17.211Z,26.50
2022-12-01T09:39:46.151Z,26.60
2022-12-01T09:42:16.285Z,26.30
2022-12-01T09:44:47.829Z,25.70
2022-12-01T09:47:21.058Z,25.30
2022-12-01T09:49:54.553Z,25.60
2022-12-01T09:52:24.288Z,25.30
2022-12-01T09:54:54.665Z,24.80
2022-12-01T09:57:28.595Z,24.40
2022-12-01T09:59:57.411Z,24.00
2022-12-01T10:02:30.908Z,23.40
2022-12-01T10:05:01.114Z,22.70
2022-12-01T10:07:32.156Z,22.10
2022-12-01T10:10:02.176Z,21.50
2022-12-01T10:12:32.936Z,21.10
2022-12-01T10:15:07.390Z,20.70
2022-12-01T10:17:40.226Z,20.30
2022-12-01T10:20:13.433Z,20.00
2022-12-01T10:22:58.689Z,19.80
2022-12-01T10:25:29.078Z,19.60
2022-12-01T10:28:04.671Z,19.40
2022-12-01T10:30:39.407Z,19.30
2022-12-01T10:33:14.616Z,19.20
2022-12-01T10:35:43.313Z,19.10
2022-12-01T10:38:14.763Z,19.00
2022-12-01T10:40:44.387Z,19.00
2022-12-01T10:43:14.321Z,19.00
2022-12-01T10:45:45.294Z,18.90
2022-12-01T10:48:19.244Z,18.90
2022-12-01T10:50:48.953Z,18.90
2022-12-01T10:53:36.867Z,18.80
2022-12-01T10:56:07.553Z,18.70
2022-12-01T10:58:44.015Z,18.70
2022-12-01T11:01:17.865Z,18.70
2022-12-01T11:03:50.996Z,18.70
2022-12-01T11:06:23.142Z,18.80
2022-12-01T11:08:57.291Z,18.80
2022-12-01T11:11:31.525Z,18.80
2022-12-01T11:14:01.671Z,18.80
2022-12-01T11:16:35.575Z,18.80
2022-12-01T11:19:11.100Z,18.80
2022-12-01T11:21:47.148Z,18.80
2022-12-01T11:24:26.877Z,18.90
2022-12-01T11:26:55.751Z,18.90
2022-12-01T11:29:29.264Z,18.90
2022-12-01T11:31:59.207Z,18.90
2022-12-01T11:34:32.401Z,18.90
2022-12-01T11:37:02.752Z,18.80
2022-12-01T11:39:33.259Z,18.80
2022-12-01T11:42:03.084Z,18.70
2022-12-01T11:44:50.935Z,18.70
2022-12-01T11:47:24.125Z,18.70
2022-12-01T11:49:56.827Z,18.70
2022-12-01T11:52:27.743Z,18.60
2022-12-01T11:54:57.039Z,18.60
2022-12-01T11:58:12.603Z,18.60
2022-12-01T12:00:15.448Z,18.50
2022-12-01T12:02:48.167Z,18.50
2022-12-01T12:05:41.062Z,18.50
2022-12-01T12:08:15.226Z,18.50
2022-12-01T12:10:49.494Z,18.50
2022-12-01T12:13:38.958Z,18.40
2022-12-01T12:16:11.911Z,18.50
2022-12-01T12:18:53.018Z,18.50
2022-12-01T12:21:31.324Z,18.50
2022-12-01T12:24:39.516Z,18.60
2022-12-01T12:27:11.482Z,18.60
2022-12-01T12:29:48.652Z,18.50
2022-12-01T12:32:27.643Z,18.60
2022-12-01T12:35:00.424Z,18.40
2022-12-01T12:37:33.039Z,18.00
2022-12-01T12:40:07.632Z,17.40
2022-12-01T12:42:40.338Z,16.80
2022-12-01T12:45:16.776Z,16.30
2022-12-01T12:47:55.534Z,15.90
2022-12-01T12:50:27.945Z,15.60
2022-12-01T12:52:58.785Z,15.30
2022-12-01T12:55:29.559Z,15.10
2022-12-01T12:57:59.560Z,15.00
2022-12-01T13:00:29.317Z,14.90
2022-12-01T13:03:17.783Z,14.80
2022-12-01T13:05:50.211Z,14.70
2022-12-01T13:17:10.606Z,14.60
2022-12-01T13:19:41.703Z,14.50
2022-12-01T13:22:13.176Z,14.40
2022-12-01T13:24:43.381Z,14.40
2022-12-01T13:27:33.368Z,14.40
2022-12-01T13:30:02.037Z,14.30
2022-12-01T13:32:33.472Z,14.20
2022-12-01T13:35:02.950Z,14.20
2022-12-01T13:37:50.086Z,14.20
2022-12-01T13:40:24.304Z,14.10
2022-12-01T13:43:17.532Z,14.10
2022-12-01T13:45:46.168Z,14.00
2022-12-01T13:48:28.999Z,14.00
2022-12-01T13:51:01.711Z,14.00
2022-12-01T13:53:31.562Z,14.00
2022-12-01T13:56:14.772Z,14.00
2022-12-01T13:58:47.652Z,13.90
2022-12-01T14:01:35.286Z,13.90
2022-12-01T14:04:23.583Z,13.90
2022-12-01T14:07:12.196Z,13.90
2022-12-01T14:09:42.197Z,13.90
2022-12-01T14:12:33.055Z,13.90
2022-12-01T14:15:04.308Z,13.80
2022-12-01T14:17:35.719Z,13.80
2022-12-01T14:20:08.563Z,13.80
2022-12-01T14:22:39.439Z,13.80
2022-12-01T14:25:22.739Z,13.80
2022-12-01T14:28:15.525Z,13.80
2022-12-01T14:31:05.646Z,13.80
2022-12-01T14:33:47.907Z,13.70
2022-12-01T14:45:28.395Z,13.70
2022-12-01T14:48:04.213Z,13.70
2022-12-01T14:50:42.228Z,13.70
2022-12-01T14:53:20.086Z,13.70
2022-12-01T14:55:52.075Z,13.70
2022-12-01T14:58:22.514Z,13.70
2022-12-01T15:00:57.147Z,13.70
2022-12-01T15:03:32.114Z,13.70
2022-12-01T15:06:01.138Z,13.70
2022-12-01T15:08:58.753Z,13.70
2022-12-01T15:11:23.054Z,13.70
2022-12-01T15:13:55.413Z,13.70
2022-12-01T15:16:25.012Z,13.70
2022-12-01T15:18:55.119Z,13.80
2022-12-01T15:21:25.112Z,13.80
2022-12-01T15:23:54.381Z,13.70
2022-12-01T15:26:24.208Z,13.80
2022-12-01T15:29:05.038Z,13.80
2022-12-01T15:31:35.618Z,13.80
2022-12-01T15:34:06.188Z,13.80
2022-12-01T15:36:34.777Z,13.80
2022-12-01T15:39:07.096Z,13.80
2022-12-01T15:41:38.241Z,13.80
2022-12-01T15:44:18.164Z,13.90
2022-12-01T15:46:46.868Z,13.90
2022-12-01T15:49:20.858Z,13.80
2022-12-01T15:51:50.481Z,13.90
2022-12-01T15:54:20.811Z,13.90
2022-12-01T15:56:52.527Z,13.90
2022-12-01T15:59:26.690Z,13.90
2022-12-01T16:01:56.963Z,13.90
2022-12-01T16:04:28.196Z,13.80
2022-12-01T16:07:00.719Z,13.80
2022-12-01T16:09:33.373Z,13.80
2022-12-01T16:12:19.964Z,13.70
2022-12-01T16:15:04.486Z,13.70
2022-12-01T16:17:42.516Z,13.60
2022-12-01T16:20:25.144Z,13.60
2022-12-01T16:22:56.932Z,13.50
2022-12-01T16:25:31.404Z,13.60
2022-12-01T16:28:00.176Z,13.50
2022-12-01T16:30:31.568Z,13.50
2022-12-01T16:33:04.213Z,13.30
2022-12-01T16:35:35.012Z,13.50
2022-12-01T16:38:06.922Z,13.40
2022-12-01T16:40:35.660Z,13.40
2022-12-01T16:43:04.208Z,13.40
2022-12-01T16:45:32.699Z,13.40
2022-12-01T16:48:06.189Z,13.40
2022-12-01T16:50:39.419Z,13.30
2022-12-01T16:53:08.003Z,13.30
2022-12-01T16:55:38.765Z,13.30
2022-12-01T16:58:07.409Z,13.30
2022-12-01T17:00:36.088Z,13.30
2022-12-01T17:03:04.767Z,13.30
2022-12-01T17:05:33.504Z,13.30
2022-12-01T17:08:03.444Z,13.30
2022-12-01T17:10:32.087Z,13.30
2022-12-01T17:13:00.648Z,13.30
2022-12-01T17:15:29.231Z,13.30
2022-12-01T17:17:57.696Z,13.30
2022-12-01T17:20:26.563Z,13.40
2022-12-01T17:22:55.145Z,13.40
2022-12-01T17:25:25.405Z,13.40
2022-12-01T17:27:54.137Z,13.40
2022-12-01T17:30:23.575Z,13.40
2022-12-01T17:32:52.227Z,13.40
2022-12-01T17:35:20.978Z,13.40
2022-12-01T17:37:49.476Z,13.40
2022-12-01T17:40:18.084Z,13.40
2022-12-01T17:42:51.183Z,13.30
2022-12-01T17:45:20.355Z,13.30
2022-12-01T17:47:53.654Z,13.30
2022-12-01T17:50:22.257Z,13.30
2022-12-01T17:52:50.928Z,13.30
2022-12-01T17:55:19.756Z,13.30
2022-12-01T17:57:49.956Z,13.30
2022-12-01T18:00:19.062Z,13.30
2022-12-01T18:02:48.324Z,13.20
2022-12-01T18:05:17.149Z,13.20
2022-12-01T18:07:45.838Z,13.20
2022-12-01T18:10:14.467Z,13.00
2022-12-01T18:12:43.076Z,13.10
2022-12-01T18:15:13.577Z,13.10
2022-12-01T18:17:42.468Z,13.10
2022-12-01T18:20:11.353Z,13.00
2022-12-01T18:22:39.829Z,13.00
2022-12-01T18:25:08.768Z,13.00
2022-12-01T18:27:40.374Z,12.90
2022-12-01T18:30:09.937Z,12.90
2022-12-01T18:32:40.196Z,12.90
2022-12-01T18:35:09.687Z,12.80
2022-12-01T18:37:39.451Z,12.80
2022-12-01T18:40:08.970Z,12.70
2022-12-01T18:42:37.735Z,12.70
2022-12-01T18:45:06.843Z,12.70
2022-12-01T18:47:35.509Z,12.60
2022-12-01T18:50:06.426Z,12.60
2022-12-01T18:52:36.403Z,12.60
2022-12-01T18:55:05.274Z,12.50
2022-12-01T18:57:33.930Z,12.50
2022-12-01T19:00:02.573Z,12.50
2022-12-01T19:02:31.271Z,12.40
2022-12-01T19:04:59.985Z,12.40
2022-12-01T19:07:30.692Z,12.30
2022-12-01T19:09:59.644Z,12.30
2022-12-01T19:12:28.261Z,12.30
2022-12-01T19:14:57.153Z,12.20
2022-12-01T19:17:25.869Z,12.20
2022-12-01T19:19:54.381Z,12.20
2022-12-01T19:22:23.077Z,12.20
2022-12-01T19:24:54.246Z,12.10
2022-12-01T19:27:23.151Z,12.10
2022-12-01T19:29:52.459Z,12.10
2022-12-01T19:32:21.419Z,12.10
2022-12-01T19:34:53.837Z,12.00
2022-12-01T19:37:22.863Z,12.00
2022-12-01T19:39:51.872Z,12.00
2022-12-01T19:42:22.139Z,12.00
2022-12-01T19:44:50.918Z,12.00
2022-12-01T19:47:22.408Z,12.00
2022-12-01T19:49:51.402Z,12.00
2022-12-01T19:52:19.912Z,12.00
2022-12-01T19:54:49.653Z,12.00
2022-12-01T19:57:18.408Z,12.00
2022-12-01T19:59:48.680Z,12.00
2022-12-01T20:02:17.854Z,11.90
2022-12-01T20:04:46.513Z,11.90
2022-12-01T20:07:15.071Z,11.90
2022-12-01T20:09:48.420Z,11.90
2022-12-01T20:12:18.824Z,11.90
2022-12-01T20:14:49.444Z,11.80
2022-12-01T20:17:18.183Z,11.80
2022-12-01T20:19:46.673Z,11.80
2022-12-01T20:22:15.146Z,11.80
2022-12-01T20:24:43.748Z,11.70
2022-12-01T20:27:12.308Z,11.70
2022-12-01T20:29:40.780Z,11.60
2022-12-01T20:32:11.461Z,11.60
2022-12-01T20:34:40.170Z,11.60
2022-12-01T20:37:08.584Z,11.50
2022-12-01T20:39:38.380Z,11.50
2022-12-01T20:42:07.390Z,11.40
2022-12-01T20:44:36.083Z,11.40
2022-12-01T20:47:04.783Z,11.30
2022-12-01T20:49:36.244Z,11.30
2022-12-01T20:52:05.609Z,11.30
2022-12-01T20:54:34.372Z,11.20
2022-12-01T20:57:03.362Z,11.20
2022-12-01T20:59:32.034Z,11.20
2022-12-01T21:02:00.583Z,11.20
2022-12-01T21:04:29.163Z,11.10
2022-12-01T21:06:59.641Z,11.10
2022-12-01T21:09:28.611Z,11.10
2022-12-01T21:12:15.624Z,11.10
2022-12-01T21:14:46.442Z,11.10
2022-12-01T21:17:21.225Z,11.10
2022-12-01T21:19:53.835Z,11.10
2022-12-01T21:22:23.883Z,11.10
2022-12-01T21:24:53.396Z,11.10
2022-12-01T21:27:22.152Z,11.10
2022-12-01T21:29:51.684Z,11.00
2022-12-01T21:32:21.057Z,11.10
2022-12-01T21:34:49.902Z,11.10
2022-12-01T21:37:21.725Z,11.10
2022-12-01T21:39:52.911Z,11.10
2022-12-01T21:42:22.509Z,11.10
2022-12-01T21:44:51.321Z,11.10
2022-12-01T21:47:21.358Z,11.20
2022-12-01T21:49:51.086Z,11.20
2022-12-01T21:52:20.508Z,11.20
2022-12-01T21:54:49.683Z,11.30
2022-12-01T21:57:41.115Z,11.30
2022-12-01T22:00:26.945Z,11.30
2022-12-01T22:03:01.723Z,11.30
2022-12-01T22:05:32.762Z,11.40
2022-12-01T22:08:09.371Z,11.40
2022-12-01T22:10:52.609Z,11.40
2022-12-01T22:13:23.582Z,11.40
2022-12-01T22:15:54.241Z,11.40
2022-12-01T22:18:24.439Z,11.50
2022-12-01T22:21:32.685Z,11.40
2022-12-01T22:24:03.702Z,11.60
2022-12-01T22:26:32.962Z,11.50
2022-12-01T22:29:01.556Z,11.70
2022-12-01T22:31:32.106Z,11.60
2022-12-01T22:34:21.406Z,11.60
2022-12-01T22:36:50.380Z,11.60
2022-12-01T22:39:26.404Z,11.60
2022-12-01T22:41:57.130Z,11.60
2022-12-01T22:44:27.096Z,11.60
2022-12-01T22:46:59.803Z,11.60
2022-12-01T22:49:28.550Z,11.60
2022-12-01T22:52:00.262Z,11.60
2022-12-01T22:54:30.303Z,11.60
2022-12-01T22:57:03.298Z,11.60
2022-12-01T22:59:34.253Z,11.60
2022-12-01T23:02:08.062Z,11.60
2022-12-01T23:04:40.061Z,11.50
2022-12-01T23:07:36.992Z,11.50
2022-12-01T23:10:12.399Z,11.40
2022-12-01T23:12:41.344Z,11.40
2022-12-01T23:15:24.618Z,11.40
2022-12-01T23:17:54.659Z,11.40
2022-12-01T23:20:33.916Z,11.30
2022-12-01T23:23:03.411Z,11.40
2022-12-01T23:25:32.219Z,11.30
2022-12-01T23:28:01.909Z,11.20
2022-12-01T23:30:30.751Z,11.20
2022-12-01T23:33:15.815Z,11.20
2022-12-01T23:35:47.184Z,11.30
2022-12-01T23:38:17.436Z,11.10
2022-12-01T23:40:46.142Z,11.10
2022-12-01T23:43:17.920Z,11.10
2022-12-01T23:45:46.793Z,11.10
2022-12-01T23:48:19.595Z,11.10
2022-12-01T23:50:48.851Z,11.30
2022-12-01T23:53:25.625Z,11.10
2022-12-01T23:55:54.273Z,11.10
2022-12-01T23:58:22.867Z,11.10
